createdAt,value
2019-01-08T00:00:12.378Z,8.2
2019-01-08T00:01:22.059Z,8.15
2019-01-08T00:02:31.735Z,8.18
2019-01-08T00:03:41.652Z,8.16
2019-01-08T00:04:51.075Z,8.16
2019-01-08T00:06:00.501Z,8.3
2019-01-08T00:07:09.920Z,8.23
2019-01-08T00:08:19.336Z,8.11
2019-01-08T00:09:29.264Z,8.08
2019-01-08T00:10:38.945Z,7.97
2019-01-08T00:11:48.873Z,8.05
2019-01-08T00:12:58.547Z,8.1
2019-01-08T00:14:07.980Z,7.95
2019-01-08T00:15:17.418Z,8.08
2019-01-08T00:16:27.346Z,8.19
2019-01-08T00:17:36.525Z,8.11
2019-01-08T00:18:45.948Z,8.1
2019-01-08T00:19:55.373Z,8.1
2019-01-08T00:21:04.821Z,8.05
2019-01-08T00:22:14.247Z,8.16
2019-01-08T00:23:23.422Z,8.18
2019-01-08T00:24:33.349Z,8.12
2019-01-08T00:25:42.797Z,8.04
2019-01-08T00:26:52.725Z,8.11
2019-01-08T00:28:01.919Z,8.15
2019-01-08T00:29:11.603Z,8.11
2019-01-08T00:30:21.191Z,8.04
2019-01-08T00:31:30.620Z,8.02
2019-01-08T00:32:40.294Z,8.29
2019-01-08T00:33:49.961Z,8.01
2019-01-08T00:34:59.429Z,8.04
2019-01-08T00:36:08.863Z,8.01
2019-01-08T00:37:18.788Z,8.05
2019-01-08T00:38:28.720Z,8
2019-01-08T00:39:38.642Z,8.1
2019-01-08T00:40:48.321Z,8.04
2019-01-08T00:41:57.505Z,8.07
2019-01-08T00:43:07.185Z,8.05
2019-01-08T00:44:16.875Z,8.16
2019-01-08T00:45:26.557Z,8.1
2019-01-08T00:46:36.226Z,8.05
2019-01-08T00:47:45.651Z,8.05
2019-01-08T00:48:55.322Z,8.05
2019-01-08T00:50:05.004Z,8.1
2019-01-08T00:51:14.687Z,8.08
2019-01-08T00:52:24.360Z,8.16
2019-01-08T00:53:33.796Z,8.02
2019-01-08T00:54:43.222Z,7.9
2019-01-08T00:55:53.323Z,7.98
2019-01-08T00:57:02.996Z,8.05
2019-01-08T00:58:12.422Z,8.18
2019-01-08T00:59:21.908Z,8.16
2019-01-08T01:00:31.832Z,8.05
2019-01-08T01:01:41.766Z,8.05
2019-01-08T01:02:51.198Z,8.08
2019-01-08T01:04:00.882Z,8
2019-01-08T01:05:10.568Z,8.1
2019-01-08T01:06:20.244Z,7.98
2019-01-08T01:07:30.198Z,8.04
2019-01-08T01:08:39.627Z,7.97
2019-01-08T01:09:49.057Z,8.18
2019-01-08T01:10:58.745Z,7.98
2019-01-08T01:12:08.419Z,7.92
2019-01-08T01:13:18.094Z,7.93
2019-01-08T01:14:27.523Z,7.93
2019-01-08T01:15:37.449Z,7.98
2019-01-08T01:16:47.126Z,8.04
2019-01-08T01:17:56.796Z,8.19
2019-01-08T01:19:06.225Z,8.22
2019-01-08T01:20:16.157Z,8.02
2019-01-08T01:21:25.888Z,8.02
2019-01-08T01:22:35.609Z,8.11
2019-01-08T01:23:45.287Z,8.1
2019-01-08T01:24:54.972Z,8.12
2019-01-08T01:26:03.903Z,8.16
2019-01-08T01:27:13.579Z,8.05
2019-01-08T01:28:23.502Z,8.16
2019-01-08T01:29:32.933Z,8.1
2019-01-08T01:30:42.363Z,8.15
2019-01-08T01:31:52.051Z,8.25
2019-01-08T01:33:01.730Z,8.11
2019-01-08T01:34:11.655Z,7.97
2019-01-08T01:35:21.331Z,8.19
2019-01-08T01:36:31.258Z,8.15
2019-01-08T01:37:40.946Z,8.07
2019-01-08T01:38:50.376Z,8.36
2019-01-08T01:40:00.049Z,8.04
2019-01-08T01:41:09.827Z,7.98
2019-01-08T01:42:19.504Z,7.98
2019-01-08T01:43:29.435Z,7.93
2019-01-08T01:44:38.862Z,7.83
2019-01-08T01:45:48.291Z,7.87
2019-01-08T01:46:57.714Z,8.01
2019-01-08T01:48:07.202Z,7.82
2019-01-08T01:49:16.635Z,7.93
2019-01-08T01:50:26.062Z,7.98
2019-01-08T01:51:35.493Z,7.87
2019-01-08T01:52:45.168Z,7.98
2019-01-08T01:53:55.089Z,7.83
2019-01-08T01:55:05.020Z,7.93
2019-01-08T01:56:14.694Z,7.89
2019-01-08T01:57:24.384Z,7.77
2019-01-08T01:58:34.310Z,7.93
2019-01-08T01:59:44.235Z,7.86
2019-01-08T02:00:53.916Z,7.89
2019-01-08T02:02:03.690Z,7.86
2019-01-08T02:03:13.367Z,8.18
2019-01-08T02:04:22.541Z,7.87
2019-01-08T02:05:32.209Z,7.89
2019-01-08T02:06:41.883Z,7.83
2019-01-08T02:07:51.059Z,7.79
2019-01-08T02:09:01.057Z,7.83
2019-01-08T02:10:10.733Z,7.89
2019-01-08T02:11:20.668Z,7.85
2019-01-08T02:12:30.094Z,7.87
2019-01-08T02:13:39.597Z,7.9
2019-01-08T02:14:49.532Z,7.82
2019-01-08T02:15:59.465Z,7.71
2019-01-08T02:17:09.137Z,7.85
2019-01-08T02:18:19.063Z,7.71
2019-01-08T02:19:28.997Z,7.68
2019-01-08T02:20:38.924Z,7.63
2019-01-08T02:21:48.359Z,7.69
2019-01-08T02:22:58.283Z,7.67
2019-01-08T02:24:07.954Z,7.61
2019-01-08T02:25:17.625Z,7.6
2019-01-08T02:26:27.549Z,7.67
2019-01-08T02:27:37.473Z,7.79
2019-01-08T02:28:47.405Z,7.63
2019-01-08T02:29:57.090Z,7.64
2019-01-08T02:31:07.215Z,7.6
2019-01-08T02:32:17.155Z,7.63
2019-01-08T02:33:29.182Z,7.55
2019-01-08T02:34:38.927Z,7.68
2019-01-08T02:35:48.605Z,7.58
2019-01-08T02:36:58.305Z,7.57
2019-01-08T02:38:07.981Z,7.48
2019-01-08T02:39:17.649Z,7.48
2019-01-08T02:40:26.827Z,7.58
2019-01-08T02:41:36.933Z,7.52
2019-01-08T02:42:46.701Z,7.49
2019-01-08T02:43:56.588Z,7.5
2019-01-08T02:45:06.311Z,7.53
2019-01-08T02:46:16.701Z,7.58
2019-01-08T02:47:26.951Z,7.58
2019-01-08T02:48:36.631Z,7.5
2019-01-08T02:49:46.567Z,7.52
2019-01-08T02:50:56.252Z,7.53
2019-01-08T02:52:06.191Z,7.82
2019-01-08T02:53:15.865Z,7.61
2019-01-08T02:54:26.110Z,7.45
2019-01-08T02:55:36.272Z,7.52
2019-01-08T02:56:45.972Z,7.49
2019-01-08T02:57:55.402Z,7.68
2019-01-08T02:59:04.833Z,7.58
2019-01-08T03:00:14.259Z,7.39
2019-01-08T03:01:24.191Z,7.4
2019-01-08T03:02:33.622Z,7.35
2019-01-08T03:03:43.551Z,7.27
2019-01-08T03:04:54.487Z,7.31
2019-01-08T03:06:04.423Z,7.17
2019-01-08T03:07:13.842Z,7.17
2019-01-08T03:08:23.587Z,7.16
2019-01-08T03:09:33.259Z,7.21
2019-01-08T03:10:42.934Z,7.16
2019-01-08T03:11:52.856Z,7.13
2019-01-08T03:13:02.530Z,7.03
2019-01-08T03:14:11.958Z,7.07
2019-01-08T03:15:21.380Z,7.05
2019-01-08T03:16:31.069Z,7.12
2019-01-08T03:17:40.749Z,7.12
2019-01-08T03:18:50.173Z,6.99
2019-01-08T03:19:59.859Z,6.95
2019-01-08T03:21:09.289Z,7.05
2019-01-08T03:22:18.977Z,7.03
2019-01-08T03:23:28.405Z,6.85
2019-01-08T03:24:38.325Z,7.03
2019-01-08T03:25:47.751Z,7.02
2019-01-08T03:26:57.447Z,6.85
2019-01-08T03:28:07.377Z,6.94
2019-01-08T03:29:17.054Z,6.98
2019-01-08T03:30:26.739Z,6.74
2019-01-08T03:31:36.686Z,6.8
2019-01-08T03:32:46.550Z,6.97
2019-01-08T03:33:56.220Z,6.97
2019-01-08T03:35:05.910Z,6.8
2019-01-08T03:36:15.584Z,6.76
2019-01-08T03:37:25.259Z,6.81
2019-01-08T03:38:35.190Z,6.74
2019-01-08T03:39:44.864Z,6.95
2019-01-08T03:40:54.536Z,6.76
2019-01-08T03:42:04.209Z,6.89
2019-01-08T03:43:13.634Z,6.77
2019-01-08T03:44:23.563Z,6.8
2019-01-08T03:45:33.491Z,6.92
2019-01-08T03:46:43.162Z,6.87
2019-01-08T03:47:52.838Z,6.91
2019-01-08T03:49:02.766Z,6.84
2019-01-08T03:50:11.954Z,6.84
2019-01-08T03:51:21.628Z,6.8
2019-01-08T03:52:31.556Z,6.89
2019-01-08T03:53:40.738Z,6.95
2019-01-08T03:54:50.414Z,6.84
2019-01-08T03:56:00.341Z,6.92
2019-01-08T03:57:10.016Z,6.88
2019-01-08T03:58:18.694Z,6.89
2019-01-08T03:59:28.379Z,7.05
2019-01-08T04:00:38.303Z,6.89
2019-01-08T04:01:47.723Z,6.91
2019-01-08T04:02:57.399Z,6.84
2019-01-08T04:04:07.077Z,6.84
2019-01-08T04:05:16.502Z,6.91
2019-01-08T04:06:26.195Z,6.85
2019-01-08T04:07:36.122Z,6.81
2019-01-08T04:08:45.542Z,6.77
2019-01-08T04:09:55.464Z,6.81
2019-01-08T04:11:04.900Z,6.85
2019-01-08T04:12:14.578Z,6.76
2019-01-08T04:13:24.495Z,6.92
2019-01-08T04:14:34.427Z,6.89
2019-01-08T04:15:44.359Z,6.85
2019-01-08T04:16:54.036Z,6.87
2019-01-08T04:18:03.960Z,6.8
2019-01-08T04:19:13.641Z,6.74
2019-01-08T04:20:23.316Z,6.84
2019-01-08T04:21:33.243Z,6.84
2019-01-08T04:22:42.922Z,6.76
2019-01-08T04:23:52.394Z,6.92
2019-01-08T04:25:02.080Z,6.77
2019-01-08T04:26:11.759Z,6.85
2019-01-08T04:27:21.439Z,6.84
2019-01-08T04:28:31.105Z,6.77
2019-01-08T04:29:40.281Z,6.77
2019-01-08T04:30:57.927Z,6.81
2019-01-08T04:32:07.355Z,6.94
2019-01-08T04:33:17.030Z,6.74
2019-01-08T04:34:26.703Z,6.88
2019-01-08T04:35:36.135Z,6.87
2019-01-08T04:36:45.827Z,6.91
2019-01-08T04:37:55.752Z,6.88
2019-01-08T04:39:05.182Z,6.99
2019-01-08T04:40:14.361Z,6.91
2019-01-08T04:41:24.035Z,6.89
2019-01-08T04:42:33.453Z,7.03
2019-01-08T04:43:43.128Z,6.84
2019-01-08T04:44:53.129Z,6.89
2019-01-08T04:46:03.053Z,6.92
2019-01-08T04:47:12.228Z,6.81
2019-01-08T04:48:21.898Z,6.98
2019-01-08T04:49:31.327Z,6.92
2019-01-08T04:50:41.253Z,6.91
2019-01-08T04:51:50.677Z,7.03
2019-01-08T04:53:00.092Z,6.94
2019-01-08T04:54:09.780Z,6.94
2019-01-08T04:55:19.463Z,6.95
2019-01-08T04:56:29.146Z,7.02
2019-01-08T04:57:38.827Z,6.91
2019-01-08T04:58:48.496Z,6.99
2019-01-08T05:00:03.862Z,6.94
2019-01-08T05:01:13.284Z,6.98
2019-01-08T05:02:22.950Z,6.92
2019-01-08T05:03:32.626Z,6.98
2019-01-08T05:04:42.298Z,6.94
2019-01-08T05:05:53.506Z,6.99
2019-01-08T05:07:03.583Z,6.91
2019-01-08T05:08:13.323Z,7.06
2019-01-08T05:09:23.003Z,6.8
2019-01-08T05:10:32.182Z,6.88
2019-01-08T05:11:41.855Z,6.89
2019-01-08T05:12:52.949Z,6.84
2019-01-08T05:14:02.626Z,6.85
2019-01-08T05:15:12.549Z,6.92
2019-01-08T05:16:22.472Z,6.88
2019-01-08T05:17:32.172Z,6.92
2019-01-08T05:18:41.847Z,7.02
2019-01-08T05:19:51.560Z,6.91
2019-01-08T05:21:01.246Z,6.87
2019-01-08T05:22:10.429Z,6.87
2019-01-08T05:23:20.355Z,6.81
2019-01-08T05:24:30.026Z,6.89
2019-01-08T05:25:39.708Z,6.99
2019-01-08T05:26:49.135Z,6.97
2019-01-08T05:27:58.556Z,6.92
2019-01-08T05:29:08.477Z,6.99
2019-01-08T05:30:18.151Z,6.94
2019-01-08T05:31:27.568Z,6.92
2019-01-08T05:32:37.026Z,6.91
2019-01-08T05:33:46.713Z,7.06
2019-01-08T05:34:57.607Z,6.88
2019-01-08T05:36:07.289Z,7.02
2019-01-08T05:37:17.208Z,7.03
2019-01-08T05:38:26.894Z,6.85
2019-01-08T05:39:36.317Z,6.97
2019-01-08T05:40:46.241Z,7.02
2019-01-08T05:41:55.433Z,6.81
2019-01-08T05:43:05.160Z,6.8
2019-01-08T05:44:14.841Z,6.84
2019-01-08T05:45:24.526Z,6.89
2019-01-08T05:46:34.215Z,6.88
2019-01-08T05:47:43.635Z,6.87
2019-01-08T05:48:53.312Z,6.8
2019-01-08T05:50:02.995Z,6.87
2019-01-08T05:51:12.426Z,6.8
2019-01-08T05:52:22.113Z,6.7
2019-01-08T05:53:31.790Z,6.95
2019-01-08T05:54:41.214Z,6.95
2019-01-08T05:55:50.891Z,6.84
2019-01-08T05:57:00.813Z,6.88
2019-01-08T05:58:10.741Z,6.84
2019-01-08T05:59:20.180Z,6.77
2019-01-08T06:00:29.855Z,6.77
2019-01-08T06:01:39.292Z,6.87
2019-01-08T06:02:49.222Z,6.79
2019-01-08T06:03:58.652Z,6.8
2019-01-08T06:05:08.081Z,6.89
2019-01-08T06:06:18.004Z,6.92
2019-01-08T06:07:27.440Z,6.84
2019-01-08T06:08:37.117Z,6.77
2019-01-08T06:09:47.039Z,6.84
2019-01-08T06:10:56.711Z,6.74
2019-01-08T06:12:06.669Z,6.84
2019-01-08T06:13:16.089Z,6.79
2019-01-08T06:14:26.111Z,6.77
2019-01-08T06:15:35.779Z,6.69
2019-01-08T06:16:45.208Z,6.76
2019-01-08T06:17:54.646Z,6.77
2019-01-08T06:19:04.066Z,6.87
2019-01-08T06:20:13.738Z,6.8
2019-01-08T06:21:22.665Z,6.89
2019-01-08T06:22:32.338Z,6.99
2019-01-08T06:23:41.771Z,6.81
2019-01-08T06:24:50.946Z,6.94
2019-01-08T06:26:00.390Z,6.97
2019-01-08T06:27:10.077Z,6.92
2019-01-08T06:28:19.506Z,6.91
2019-01-08T06:29:28.677Z,6.89
2019-01-08T06:30:38.097Z,6.89
2019-01-08T06:31:48.020Z,6.88
2019-01-08T06:32:57.692Z,6.89
2019-01-08T06:34:06.873Z,6.88
2019-01-08T06:35:16.802Z,6.8
2019-01-08T06:36:26.374Z,6.92
2019-01-08T06:37:36.076Z,7.02
2019-01-08T06:38:46.019Z,7.03
2019-01-08T06:39:55.700Z,7.02
2019-01-08T06:41:05.415Z,7.05
2019-01-08T06:42:15.099Z,6.92
2019-01-08T06:43:24.525Z,6.95
2019-01-08T06:44:34.203Z,6.91
2019-01-08T06:45:44.131Z,6.85
2019-01-08T06:46:54.058Z,6.87
2019-01-08T06:48:03.743Z,7.09
2019-01-08T06:49:13.666Z,6.84
2019-01-08T06:50:22.842Z,7.02
2019-01-08T06:51:32.274Z,6.95
2019-01-08T06:52:41.705Z,6.85
2019-01-08T06:53:51.136Z,6.89
2019-01-08T06:55:01.058Z,6.99
2019-01-08T06:56:10.739Z,7.1
2019-01-08T06:57:22.352Z,6.99
2019-01-08T06:58:31.788Z,7.09
2019-01-08T06:59:41.461Z,7.03
2019-01-08T07:00:50.885Z,7.07
2019-01-08T07:02:00.564Z,6.99
2019-01-08T07:03:10.252Z,6.98
2019-01-08T07:04:19.682Z,6.92
2019-01-08T07:05:28.853Z,6.95
2019-01-08T07:06:38.531Z,7.09
2019-01-08T07:07:48.201Z,7.03
2019-01-08T07:08:57.878Z,6.89
2019-01-08T07:10:07.564Z,6.98
2019-01-08T07:11:17.232Z,7.02
2019-01-08T07:12:27.158Z,6.91
2019-01-08T07:13:36.837Z,6.88
2019-01-08T07:14:47.203Z,6.92
2019-01-08T07:15:57.254Z,6.87
2019-01-08T07:17:07.032Z,6.99
2019-01-08T07:18:16.961Z,7.05
2019-01-08T07:19:26.642Z,7.02
2019-01-08T07:20:35.822Z,6.92
2019-01-08T07:21:45.501Z,6.99
2019-01-08T07:22:55.180Z,6.92
2019-01-08T07:24:05.102Z,6.84
2019-01-08T07:25:14.534Z,6.87
2019-01-08T07:26:24.458Z,6.85
2019-01-08T07:27:33.882Z,6.85
2019-01-08T07:28:43.558Z,6.81
2019-01-08T07:29:52.988Z,6.81
2019-01-08T07:31:02.667Z,7.03
2019-01-08T07:32:12.674Z,6.81
2019-01-08T07:33:22.673Z,6.85
2019-01-08T07:34:32.602Z,6.8
2019-01-08T07:35:42.635Z,6.94
2019-01-08T07:36:52.319Z,6.97
2019-01-08T07:38:02.287Z,6.88
2019-01-08T07:39:11.963Z,6.87
2019-01-08T07:40:21.499Z,6.8
2019-01-08T07:41:31.180Z,6.76
2019-01-08T07:42:40.823Z,6.71
2019-01-08T07:43:49.748Z,6.84
2019-01-08T07:44:59.286Z,6.89
2019-01-08T07:46:08.713Z,6.88
2019-01-08T07:47:18.926Z,6.91
2019-01-08T07:48:28.604Z,6.66
2019-01-08T07:49:37.784Z,6.76
2019-01-08T07:50:47.223Z,6.69
2019-01-08T07:51:56.965Z,6.73
2019-01-08T07:53:06.762Z,6.7
2019-01-08T07:54:16.196Z,6.64
2019-01-08T07:55:25.632Z,6.8
2019-01-08T07:56:35.304Z,6.84
2019-01-08T07:57:44.810Z,6.79
2019-01-08T07:58:54.532Z,6.91
2019-01-08T08:00:04.213Z,6.92
2019-01-08T08:01:14.144Z,6.8
2019-01-08T08:02:23.803Z,6.7
2019-01-08T08:03:33.481Z,6.87
2019-01-08T08:04:50.165Z,6.8
2019-01-08T08:05:59.864Z,6.69
2019-01-08T08:07:09.793Z,6.73
2019-01-08T08:08:18.992Z,6.7
2019-01-08T08:09:28.672Z,6.73
2019-01-08T08:10:38.165Z,6.69
2019-01-08T08:11:48.086Z,6.62
2019-01-08T08:12:57.026Z,6.64
2019-01-08T08:14:06.957Z,6.59
2019-01-08T08:15:16.578Z,6.62
2019-01-08T08:16:26.560Z,6.64
2019-01-08T08:17:36.483Z,6.71
2019-01-08T08:18:46.412Z,6.71
2019-01-08T08:19:56.088Z,6.66
2019-01-08T08:21:06.030Z,6.67
2019-01-08T08:22:15.210Z,6.67
2019-01-08T08:23:24.725Z,6.77
2019-01-08T08:24:34.671Z,6.64
2019-01-08T08:25:43.597Z,6.66
2019-01-08T08:26:53.034Z,6.74
2019-01-08T08:28:02.217Z,6.84
2019-01-08T08:29:11.911Z,6.61
2019-01-08T08:30:21.846Z,6.8
2019-01-08T08:31:33.601Z,6.71
2019-01-08T08:32:43.277Z,6.74
2019-01-08T08:33:52.714Z,6.73
2019-01-08T08:35:10.690Z,6.84
2019-01-08T08:36:20.657Z,6.87
2019-01-08T08:37:30.337Z,6.87
2019-01-08T08:38:40.068Z,6.77
2019-01-08T08:39:49.752Z,6.88
2019-01-08T08:40:59.805Z,6.88
2019-01-08T08:42:09.505Z,6.79
2019-01-08T08:43:19.438Z,6.8
2019-01-08T08:44:28.858Z,6.92
2019-01-08T08:45:38.783Z,6.8
2019-01-08T08:46:48.456Z,6.87
2019-01-08T08:47:58.131Z,6.89
2019-01-08T08:49:07.812Z,6.85
2019-01-08T08:50:17.500Z,6.91
2019-01-08T08:51:27.427Z,6.92
2019-01-08T08:52:37.350Z,6.92
2019-01-08T08:53:54.679Z,6.88
2019-01-08T08:55:04.504Z,6.95
2019-01-08T08:56:14.179Z,7.02
2019-01-08T08:57:24.082Z,7.12
2019-01-08T08:58:33.777Z,6.99
2019-01-08T08:59:43.405Z,6.94
2019-01-08T09:00:52.832Z,7.15
2019-01-08T09:02:02.513Z,7.16
2019-01-08T09:03:11.939Z,7.06
2019-01-08T09:04:21.543Z,7.28
2019-01-08T09:05:30.984Z,7.23
2019-01-08T09:06:40.997Z,7.13
2019-01-08T09:07:50.423Z,7.12
2019-01-08T09:09:00.062Z,7.3
2019-01-08T09:10:10.047Z,7.02
2019-01-08T09:11:20.002Z,7.2
2019-01-08T09:12:30.022Z,7.16
2019-01-08T09:13:39.747Z,7.16
2019-01-08T09:14:49.529Z,7.23
2019-01-08T09:15:58.777Z,7.35
2019-01-08T09:17:08.912Z,7.15
2019-01-08T09:18:18.353Z,7.2
2019-01-08T09:19:28.046Z,7.37
2019-01-08T09:20:37.736Z,7.28
2019-01-08T09:21:47.508Z,7.17
2019-01-08T09:22:57.189Z,7.28
2019-01-08T09:24:06.711Z,7.23
2019-01-08T09:25:16.390Z,7.23
2019-01-08T09:26:25.976Z,7.48
2019-01-08T09:27:35.427Z,7.32
2019-01-08T09:28:45.653Z,7.32
2019-01-08T09:29:55.079Z,7.31
2019-01-08T09:31:04.511Z,7.17
2019-01-08T09:32:23.218Z,7.3
2019-01-08T09:33:32.919Z,7.35
2019-01-08T09:34:42.853Z,7.37
2019-01-08T09:35:53.259Z,7.15
2019-01-08T09:37:02.714Z,7.03
2019-01-08T09:38:11.892Z,7.13
2019-01-08T09:39:20.943Z,7.12
2019-01-08T09:40:30.648Z,7.16
2019-01-08T09:41:39.829Z,7.2
2019-01-08T09:42:49.371Z,7.27
2019-01-08T09:43:59.050Z,7.23
2019-01-08T09:45:08.728Z,7.24
2019-01-08T09:46:18.600Z,7.32
2019-01-08T09:47:28.306Z,7.31
2019-01-08T09:48:38.158Z,7.16
2019-01-08T09:49:48.064Z,7.31
2019-01-08T09:50:58.107Z,7.2
2019-01-08T09:52:07.807Z,7.17
2019-01-08T09:53:17.744Z,7.45
2019-01-08T09:54:26.926Z,7.17
2019-01-08T09:55:36.119Z,7.31
2019-01-08T09:56:45.896Z,7.27
2019-01-08T09:57:55.575Z,7.37
2019-01-08T09:59:05.016Z,7.3
2019-01-08T10:00:14.886Z,7.17
2019-01-08T10:01:28.790Z,7.31
2019-01-08T10:02:38.725Z,7.46
2019-01-08T10:03:48.527Z,7.57
2019-01-08T10:04:57.707Z,7.23
2019-01-08T10:06:07.585Z,7.32
2019-01-08T10:07:17.018Z,7.3
2019-01-08T10:08:26.948Z,7.17
2019-01-08T10:09:36.376Z,7.24
2019-01-08T10:10:46.051Z,7.16
2019-01-08T10:11:56.086Z,7.23
2019-01-08T10:13:06.044Z,7.3
2019-01-08T10:14:15.324Z,7.34
2019-01-08T10:15:25.222Z,7.52
2019-01-08T10:16:34.901Z,7.5
2019-01-08T10:17:44.087Z,7.43
2019-01-08T10:18:54.220Z,7.32
2019-01-08T10:20:04.148Z,7.49
2019-01-08T10:21:13.709Z,7.4
2019-01-08T10:22:23.395Z,7.35
2019-01-08T10:23:33.348Z,7.45
2019-01-08T10:24:42.529Z,7.31
2019-01-08T10:25:52.451Z,7.21
2019-01-08T10:27:02.130Z,7.45
2019-01-08T10:28:11.762Z,7.43
2019-01-08T10:29:20.949Z,7.46
2019-01-08T10:30:30.837Z,7.45
2019-01-08T10:31:40.268Z,7.3
2019-01-08T10:32:50.136Z,7.21
2019-01-08T10:33:59.738Z,7.23
2019-01-08T10:35:09.670Z,7.1
2019-01-08T10:36:19.104Z,7.31
2019-01-08T10:37:28.994Z,7.16
2019-01-08T10:38:39.235Z,7.16
2019-01-08T10:39:48.912Z,7.1
2019-01-08T10:40:58.658Z,6.99
2019-01-08T10:42:08.591Z,6.98
2019-01-08T10:43:18.585Z,7.09
2019-01-08T10:44:28.510Z,6.99
2019-01-08T10:45:39.572Z,7.16
2019-01-08T10:46:49.007Z,7.06
2019-01-08T10:47:58.436Z,6.89
2019-01-08T10:49:08.485Z,6.97
2019-01-08T10:50:18.387Z,7.03
2019-01-08T10:51:27.792Z,6.98
2019-01-08T10:52:37.479Z,6.95
2019-01-08T10:53:47.505Z,6.97
2019-01-08T10:54:57.438Z,7.15
2019-01-08T10:56:07.611Z,7.12
2019-01-08T10:57:17.552Z,7.12
2019-01-08T10:58:27.213Z,7.03
2019-01-08T10:59:37.146Z,7.07
2019-01-08T11:00:46.821Z,7.1
2019-01-08T11:01:56.749Z,6.92
2019-01-08T11:03:06.854Z,7.02
2019-01-08T11:04:16.530Z,7.06
2019-01-08T11:05:28.213Z,6.92
2019-01-08T11:06:38.161Z,6.98
2019-01-08T11:07:47.836Z,7.05
2019-01-08T11:08:58.027Z,7.1
2019-01-08T11:10:07.455Z,6.92
2019-01-08T11:11:17.575Z,7.07
2019-01-08T11:12:27.509Z,7.03
2019-01-08T11:13:37.250Z,6.98
2019-01-08T11:14:46.957Z,7.05
2019-01-08T11:15:56.884Z,6.95
2019-01-08T11:17:06.757Z,7.06
2019-01-08T11:18:16.688Z,7.13
2019-01-08T11:19:26.513Z,6.98
2019-01-08T11:20:36.188Z,6.94
2019-01-08T11:21:46.075Z,7.02
2019-01-08T11:22:56.001Z,6.98
2019-01-08T11:24:05.761Z,6.99
2019-01-08T11:25:15.632Z,6.87
2019-01-08T11:26:25.333Z,6.99
2019-01-08T11:27:34.858Z,7.03
2019-01-08T11:28:45.675Z,6.89
2019-01-08T11:29:55.707Z,6.98
2019-01-08T11:31:05.157Z,6.87
2019-01-08T11:32:15.212Z,6.87
2019-01-08T11:33:24.663Z,6.91
2019-01-08T11:34:34.515Z,6.89
2019-01-08T11:35:46.992Z,6.85
2019-01-08T11:36:56.678Z,6.98
2019-01-08T11:38:06.309Z,6.99
2019-01-08T11:39:16.253Z,6.92
2019-01-08T11:40:26.007Z,6.8
2019-01-08T11:41:35.547Z,6.79
2019-01-08T11:42:45.685Z,7.06
2019-01-08T11:43:55.616Z,7.09
2019-01-08T11:45:05.511Z,6.89
2019-01-08T11:46:15.190Z,6.89
2019-01-08T11:47:24.477Z,6.98
2019-01-08T11:48:34.153Z,7.03
2019-01-08T11:49:44.174Z,6.89
2019-01-08T11:50:54.034Z,6.88
2019-01-08T11:52:03.478Z,6.91
2019-01-08T11:53:13.241Z,7.06
2019-01-08T11:54:23.061Z,7.05
2019-01-08T11:55:32.666Z,6.99
2019-01-08T11:56:42.094Z,6.79
2019-01-08T11:57:52.428Z,6.88
2019-01-08T11:59:02.134Z,6.94
2019-01-08T12:00:11.795Z,6.87
2019-01-08T12:01:21.725Z,6.87
2019-01-08T12:02:31.700Z,6.87
2019-01-08T12:03:41.464Z,6.79
2019-01-08T12:04:51.381Z,6.69
2019-01-08T12:06:02.286Z,6.81
2019-01-08T12:07:11.719Z,6.94
2019-01-08T12:08:21.145Z,6.84
2019-01-08T12:09:30.323Z,6.92
2019-01-08T12:10:39.752Z,6.77
2019-01-08T12:11:48.934Z,6.77
2019-01-08T12:12:58.486Z,6.67
2019-01-08T12:14:08.030Z,6.66
2019-01-08T12:15:16.965Z,6.88
2019-01-08T12:16:26.895Z,6.88
2019-01-08T12:17:36.818Z,6.67
2019-01-08T12:18:47.026Z,6.66
2019-01-08T12:19:56.824Z,6.64
2019-01-08T12:21:06.754Z,6.77
2019-01-08T12:22:16.439Z,6.66
2019-01-08T12:23:26.373Z,6.74
2019-01-08T12:24:36.300Z,6.59
2019-01-08T12:25:46.016Z,6.61
2019-01-08T12:26:55.722Z,6.62
2019-01-08T12:28:05.359Z,6.73
2019-01-08T12:29:15.048Z,6.84
2019-01-08T12:30:25.012Z,6.85
2019-01-08T12:31:34.435Z,6.89
2019-01-08T12:32:43.859Z,6.74
2019-01-08T12:33:53.641Z,6.74
2019-01-08T12:35:03.352Z,6.61
2019-01-08T12:36:13.035Z,6.88
2019-01-08T12:37:22.464Z,6.44
2019-01-08T12:38:32.390Z,6.66
2019-01-08T12:39:41.578Z,6.77
2019-01-08T12:40:51.506Z,6.62
2019-01-08T12:42:01.190Z,6.77
2019-01-08T12:43:11.121Z,6.62
2019-01-08T12:44:20.803Z,6.71
2019-01-08T12:45:30.484Z,6.62
2019-01-08T12:46:39.918Z,6.69
2019-01-08T12:47:49.601Z,6.7
2019-01-08T12:48:59.384Z,6.79
2019-01-08T12:50:08.806Z,6.81
2019-01-08T12:51:17.999Z,6.91
2019-01-08T12:52:27.934Z,6.74
2019-01-08T12:53:37.874Z,6.73
2019-01-08T12:54:47.804Z,6.66
2019-01-08T12:55:57.243Z,6.74
2019-01-08T12:57:06.677Z,6.74
2019-01-08T12:58:16.602Z,6.74
2019-01-08T12:59:26.284Z,6.76
2019-01-08T13:00:36.266Z,6.66
2019-01-08T13:01:45.801Z,6.74
2019-01-08T13:02:55.232Z,6.74
2019-01-08T13:04:04.969Z,6.92
2019-01-08T13:05:14.649Z,6.76
2019-01-08T13:06:24.074Z,6.88
2019-01-08T13:07:33.505Z,6.71
2019-01-08T13:08:42.941Z,6.73
2019-01-08T13:09:52.866Z,6.67
2019-01-08T13:11:02.311Z,6.87
2019-01-08T13:12:11.562Z,6.74
2019-01-08T13:13:20.988Z,6.81
2019-01-08T13:14:30.938Z,6.74
2019-01-08T13:15:40.613Z,6.92
2019-01-08T13:16:50.542Z,6.81
2019-01-08T13:17:59.472Z,6.59
2019-01-08T13:19:09.155Z,6.66
2019-01-08T13:20:18.831Z,6.61
2019-01-08T13:21:28.756Z,6.59
2019-01-08T13:22:38.434Z,6.94
2019-01-08T13:23:47.864Z,6.89
2019-01-08T13:24:57.293Z,6.67
2019-01-08T13:26:07.224Z,6.51
2019-01-08T13:27:17.159Z,6.48
2019-01-08T13:28:28.338Z,6.38
2019-01-08T13:29:38.268Z,6.44
2019-01-08T13:30:47.947Z,6.51
2019-01-08T13:31:57.622Z,6.34
2019-01-08T13:33:06.826Z,6.4
2019-01-08T13:34:16.509Z,6.49
2019-01-08T13:35:26.436Z,6.46
2019-01-08T13:36:35.655Z,6.44
2019-01-08T13:37:45.341Z,6.56
2019-01-08T13:38:55.023Z,6.62
2019-01-08T13:40:04.817Z,6.55
2019-01-08T13:41:14.764Z,6.64
2019-01-08T13:42:24.446Z,6.49
2019-01-08T13:43:34.481Z,6.56
2019-01-08T13:44:44.190Z,6.71
2019-01-08T13:45:53.372Z,6.51
2019-01-08T13:47:02.578Z,6.51
2019-01-08T13:48:12.308Z,6.52
2019-01-08T13:49:21.979Z,6.49
2019-01-08T13:50:31.902Z,6.44
2019-01-08T13:51:41.678Z,6.66
2019-01-08T13:52:51.357Z,6.43
2019-01-08T13:54:01.295Z,6.44
2019-01-08T13:55:10.970Z,6.44
2019-01-08T13:56:20.655Z,6.38
2019-01-08T13:57:30.087Z,6.52
2019-01-08T13:58:39.510Z,6.41
2019-01-08T13:59:49.002Z,6.64
2019-01-08T14:00:58.177Z,6.64
2019-01-08T14:02:08.097Z,6.46
2019-01-08T14:03:17.774Z,6.7
2019-01-08T14:04:27.213Z,6.52
2019-01-08T14:05:37.145Z,6.61
2019-01-08T14:06:46.815Z,6.37
2019-01-08T14:07:56.073Z,6.36
2019-01-08T14:09:05.752Z,6.48
2019-01-08T14:10:15.433Z,6.3
2019-01-08T14:11:25.366Z,6.37
2019-01-08T14:12:35.291Z,6.44
2019-01-08T14:13:44.715Z,6.33
2019-01-08T14:14:54.482Z,6.54
2019-01-08T14:16:03.913Z,6.51
2019-01-08T14:17:13.662Z,6.41
2019-01-08T14:18:22.841Z,6.43
2019-01-08T14:19:32.034Z,6.46
2019-01-08T14:20:41.961Z,6.33
2019-01-08T14:21:51.397Z,6.28
2019-01-08T14:23:01.085Z,6.37
2019-01-08T14:24:10.512Z,6.22
2019-01-08T14:25:19.947Z,6.28
2019-01-08T14:26:29.632Z,6.38
2019-01-08T14:27:39.083Z,6.3
2019-01-08T14:28:48.366Z,6.3
2019-01-08T14:29:58.254Z,6.31
2019-01-08T14:31:07.686Z,6.37
2019-01-08T14:32:17.516Z,6.37
2019-01-08T14:33:27.195Z,6.25
2019-01-08T14:34:36.367Z,6.4
2019-01-08T14:35:46.300Z,6.33
2019-01-08T14:36:55.497Z,6.4
2019-01-08T14:38:05.172Z,6.64
2019-01-08T14:39:14.614Z,6.62
2019-01-08T14:40:24.286Z,6.48
2019-01-08T14:41:34.263Z,6.33
2019-01-08T14:42:44.009Z,6.37
2019-01-08T14:43:53.695Z,6.55
2019-01-08T14:45:03.005Z,6.48
2019-01-08T14:46:12.440Z,6.41
2019-01-08T14:47:22.276Z,6.54
2019-01-08T14:48:31.704Z,6.36
2019-01-08T14:49:41.390Z,6.48
2019-01-08T14:50:50.824Z,6.38
2019-01-08T14:52:00.263Z,6.4
2019-01-08T14:53:10.348Z,6.51
2019-01-08T14:54:20.128Z,6.46
2019-01-08T14:55:29.865Z,6.38
2019-01-08T14:56:39.054Z,6.44
2019-01-08T14:57:48.852Z,6.28
2019-01-08T14:58:58.545Z,6.41
2019-01-08T15:00:08.496Z,6.48
2019-01-08T15:01:18.442Z,6.46
2019-01-08T15:02:27.628Z,6.41
2019-01-08T15:03:37.096Z,6.4
2019-01-08T15:04:46.550Z,6.25
2019-01-08T15:05:55.267Z,6.43
2019-01-08T15:07:05.022Z,6.38
2019-01-08T15:08:14.459Z,6.22
2019-01-08T15:09:23.999Z,6.27
2019-01-08T15:10:33.478Z,6.31
2019-01-08T15:11:43.420Z,6.25
2019-01-08T15:12:52.850Z,6.3
2019-01-08T15:14:02.529Z,6.19
2019-01-08T15:15:12.878Z,6.19
2019-01-08T15:16:22.372Z,6.15
2019-01-08T15:17:31.797Z,6.03
2019-01-08T15:18:41.476Z,6.14
2019-01-08T15:19:51.396Z,6.15
2019-01-08T15:21:00.918Z,6.12
2019-01-08T15:22:10.950Z,6.03
2019-01-08T15:23:20.629Z,6.14
2019-01-08T15:24:30.321Z,6.28
2019-01-08T15:25:40.007Z,6.22
2019-01-08T15:26:49.484Z,6.09
2019-01-08T15:27:58.925Z,6.22
2019-01-08T15:29:08.855Z,6.14
2019-01-08T15:30:18.283Z,6.19
2019-01-08T15:31:27.711Z,6.08